ADDS METAR Data INFO
IDs: Format: Raw Decoded Include TAF

Data at: 0806 UTC 24 May 2018

KPOY 240755Z AUTO 18006KT 10SM OVC100 12/05 A2994 RMK AO2
KPOY 240735Z AUTO 23006KT 10SM OVC090 11/06 A2994 RMK AO2
KPOY 240715Z AUTO 24007KT 10SM OVC080 12/06 A2995 RMK AO2
KPOY 240655Z AUTO 24008KT 10SM SCT080 OVC085 12/06 A2995 RMK AO2
KPOY 240635Z AUTO 25004KT 10SM -RA SCT065 BKN080 12/05 A2995 RMK AO2
KPOY 240615Z AUTO 27003KT 10SM BKN090 BKN100 12/05 A2995 RMK AO2
KPOY 240555Z AUTO 02004KT 10SM BKN090 OVC110 11/05 A2994 RMK AO2
KPOY 240535Z AUTO 00000KT 10SM BKN090 OVC110 11/05 A2994 RMK AO2
KPOY 240515Z AUTO 26004KT 10SM SCT090 BKN110 11/05 A2994 RMK AO2
KPOY 240455Z AUTO 25004KT 10SM CLR 11/06 A2994 RMK AO2
KPOY 240435Z AUTO 00000KT 10SM CLR 11/06 A2994 RMK AO2
KPOY 240415Z AUTO 00000KT 10SM CLR 11/07 A2993 RMK AO2
KPOY 240355Z AUTO 00000KT 10SM CLR 11/07 A2993 RMK AO2
KPOY 240335Z AUTO 00000KT 10SM SCT100 11/07 A2993 RMK AO2
KPOY 240315Z AUTO 36003KT 10SM SCT100 11/08 A2992 RMK AO2
KPOY 240255Z AUTO 34004KT 10SM SCT090 12/09 A2992 RMK AO2
KPOY 240235Z AUTO 35006KT 10SM OVC090 12/09 A2992 RMK AO2
KPOY 240215Z AUTO 32005KT 10SM BKN100 12/07 A2992 RMK AO2
KPOY 240155Z AUTO 31005KT 10SM SCT100 13/07 A2991 RMK AO2
KPOY 240135Z AUTO 28007KT 10SM CLR 13/04 A2991 RMK AO2
KPOY 240115Z AUTO 25014G21KT 10SM CLR 15/03 A2990 RMK AO2 LTG DSNT E
KPOY 240055Z AUTO 24014G21KT 10SM CLR 15/03 A2990 RMK AO2 LTG DSNT E
KPOY 240035Z AUTO 24017G22KT 10SM CLR 15/03 A2990 RMK AO2
KPOY 240015Z AUTO 24015G20KT 10SM CLR 14/03 A2989 RMK AO2
KPOY 232355Z AUTO 21010KT 184V244 10SM CLR 16/06 A2988 RMK AO2
KPOY 232335Z AUTO 17011KT 10SM CLR 15/06 A2989 RMK AO2 LTG DSNT N S AND W
KPOY 232315Z AUTO 19012G16KT 10SM VCTS SCT039 SCT050 16/06 A2990 RMK AO2 LTG DSNT N
KPOY 232255Z AUTO 20010G17KT 10SM -DZ SCT030 BKN038 BKN060 15/07 A2990 RMK AO2 LTG DSNT N
KPOY 232235Z AUTO 19011G14KT 10SM SCT060 15/06 A2990 RMK AO2
KPOY 232215Z AUTO 18009G15KT 10SM -DZ SCT037 SCT045 SCT060 14/06 A2990 RMK AO2 LTG DSNT ALQS
KPOY 232155Z AUTO 16011G16KT 10SM -VCTSRA SCT037 SCT060 SCT075 15/08 A2990 RMK AO2 LTG DSNT NE E AND W
KPOY 232135Z AUTO 17010G18KT 10SM VCTS SCT029 SCT038 BKN075 15/07 A2990 RMK AO2 LTG DSNT N THRU SE
KPOY 232115Z AUTO 16009KT 10SM -RA SCT027 SCT032 BKN050 13/07 A2990 RMK AO2 LTG DSNT NE THRU S
KPOY 232055Z AUTO 17008KT 10SM -VCTSRA SCT039 BKN050 14/07 A2990 RMK AO2 LTG DSNT NE THRU S
KPOY 232035Z AUTO 19009KT 10SM -TSDZ SCT019 SCT025 BKN050 13/08 A2990 RMK AO2 LTG DSNT ALQS
KPOY 232015Z AUTO 19009KT 10SM -TSRA SCT021 BKN028 OVC060 13/10 A2991 RMK AO2 LTG DSNT E THRU S
KPOY 231955Z AUTO 17010KT 10SM TSRA SCT021 BKN028 BKN038 14/10 A2990 RMK AO2 LTG DSNT SE THRU W
KPOY 231935Z AUTO 16009KT 10SM VCTS SCT021 SCT025 SCT030 15/08 A2990 RMK AO2 LTG DSNT S AND SW
KPOY 231915Z AUTO 15010KT 10SM SCT019 BKN025 BKN035 15/08 A2991 RMK AO2 LTG DSNT S AND SW
KPOY 231855Z AUTO 14010KT 10SM SCT019 SCT025 BKN034 15/08 A2992 RMK AO2 LTG DSNT S
KPOY 231835Z AUTO 15011KT 10SM SCT021 SCT120 15/08 A2992 RMK AO2
KPOY 231815Z AUTO 15014G20KT 10SM SCT021 BKN028 BKN075 15/08 A2992 RMK AO2
KPOY 231755Z AUTO 13012KT 10SM SCT019 SCT028 BKN110 15/08 A2992 RMK AO2 LTG DSNT S
KPOY 231735Z AUTO 14012KT 10SM SCT019 SCT023 SCT030 15/08 A2992 RMK AO2
KPOY 231715Z AUTO 14008KT 10SM SCT017 SCT024 BKN036 15/08 A2992 RMK AO2 LTG DSNT S
KPOY 231655Z AUTO 14011KT 10SM SCT013 SCT020 BKN037 14/09 A2992 RMK AO2
KPOY 231635Z AUTO 14010KT 10SM SCT008 BKN014 BKN039 13/09 A2992 RMK AO2
KPOY 231615Z AUTO 14007KT 10SM SCT010 SCT016 BKN028 13/10 A2993 RMK AO2
KPOY 231555Z AUTO 15008KT 10SM SCT006 BKN025 OVC100 12/09 A2993 RMK AO2
KPOY 231535Z AUTO 16007KT 10SM SCT007 BKN019 OVC060 12/09 A2993 RMK AO2
KPOY 231515Z AUTO 15005KT 10SM SCT008 BKN048 OVC060 12/10 A2993 RMK AO2
KPOY 231455Z AUTO 17006KT 10SM SCT005 BKN010 OVC050 11/10 A2993 RMK AO2
KPOY 231435Z AUTO 17004KT 10SM BKN005 BKN011 OVC038 11/10 A2994 RMK AO2
KPOY 231415Z AUTO 18003KT 10SM SCT005 BKN012 OVC048 11/10 A2993 RMK AO2
KPOY 231355Z AUTO 17003KT 10SM SCT003 BKN008 OVC041 11/10 A2994 RMK AO2 LTG DSNT N
KPOY 231335Z AUTO 00000KT 10SM BKN003 OVC009 11/10 A2994 RMK AO2
KPOY 231315Z AUTO 00000KT 1 3/4SM RA OVC003 10/09 A2994 RMK AO2 VIS 1/2V5
KPOY 231255Z AUTO 17003KT 10SM -RA SCT003 SCT038 OVC050 10/09 A2994 RMK AO2
KPOY 231235Z AUTO 00000KT 10SM RA SCT041 OVC050 10/09 A2994 RMK AO2 LTG DSNT N
KPOY 231215Z AUTO 00000KT 10SM RA SCT003 SCT035 OVC050 10/09 A2994 RMK AO2 LTG DSNT N
KPOY 231155Z AUTO 26003KT 7SM -RA SCT003 BKN035 OVC055 10/09 A2994 RMK AO2
KPOY 231135Z AUTO 26003KT 10SM DZ SCT003 BKN035 OVC045 10/09 A2994 RMK AO2
KPOY 231115Z AUTO 25004KT 10SM RA SCT003 BKN036 OVC048 10/09 A2994 RMK AO2
KPOY 231055Z AUTO 27005KT 10SM RA BKN003 BKN008 OVC050 10/09 A2994 RMK AO2
KPOY 231035Z AUTO 28007KT 10SM -RA BKN003 BKN035 OVC060 10/09 A2994 RMK AO2
KPOY 231015Z AUTO 28007KT 7SM RA BKN043 BKN049 OVC060 10/09 A2994 RMK AO2
KPOY 230955Z AUTO 31004KT 7SM RA BKN043 OVC050 10/09 A2995 RMK AO2
KPOY 230935Z AUTO 32004KT 7SM RA SCT007 SCT043 BKN060 10/09 A2997 RMK AO2
KPOY 230915Z AUTO 33003KT 7SM RA SCT033 BKN043 10/09 A2997 RMK AO2 LTG DSNT NE
KPOY 230855Z AUTO 31004KT 7SM RA OVC033 10/09 A2998 RMK AO2 LTG DSNT NE
KPOY 230835Z AUTO 30004KT 10SM -RA BKN035 BKN045 OVC060 10/09 A2998 RMK AO2 LTG DSNT N
KPOY 230815Z AUTO 31004KT 10SM -RA SCT047 BKN060 OVC070 10/09 A2998 RMK AO2 LTG DSNT N
KPOY 230755Z AUTO 30007KT 10SM -RA BKN065 OVC075 10/09 A2998 RMK AO2
KPOY 230735Z AUTO 31007KT 10SM DZ SCT033 BKN075 OVC085 10/09 A2999 RMK AO2
KPOY 230715Z AUTO 30007KT 10SM DZ SCT038 BKN085 OVC120 10/09 A3000 RMK AO2
KPOY 230650Z AUTO 33009KT 10SM -RA SCT055 SCT075 OVC085 10/08 A3000 RMK AO2
KPOY 230635Z AUTO 34008KT 10SM BKN055 OVC085 10/08 A3000 RMK AO2 LTG DSNT NE
KPOY 230615Z AUTO 34012KT 10SM SCT037 SCT042 OVC065 10/08 A3001 RMK AO2
KPOY 230555Z AUTO 35011KT 10SM -DZ BKN035 BKN041 OVC065 10/08 A3002 RMK AO2
KPOY 230535Z AUTO 33011G15KT 10SM RA OVC037 10/08 A3003 RMK AO2 LTG DSNT NE AND S
KPOY 230515Z AUTO 35010G18KT 10SM VCTSRA BKN041 OVC049 10/08 A3004 RMK AO2 LTG DSNT N AND NE
KPOY 230455Z AUTO 33010KT 10SM -VCTSRA SCT041 BKN049 OVC070 11/09 A3004 RMK AO2 LTG DSNT N AND E
KPOY 230435Z AUTO 27014G17KT 10SM -RA SCT019 BKN049 OVC070 11/08 A3003 RMK AO2 LTG DSNT N
KPOY 230415Z AUTO 23012KT 10SM VCTSRA SCT016 BKN038 OVC055 11/08 A3005 RMK AO2 LTG DSNT N AND NW
KPOY 230355Z AUTO 20014G22KT 10SM VCTSRA SCT038 BKN060 OVC070 11/07 A3002 RMK AO2 LTG DSNT ALQS
KPOY 230335Z AUTO 20015G24KT 10SM -RA OVC075 12/07 A3000 RMK AO2 LTG DSNT N SE AND NW
KPOY 230315Z AUTO 21018KT 10SM RA SCT037 SCT050 OVC075 11/08 A2999 RMK AO2 LTG DSNT E SE AND NW
KPOY 230255Z AUTO 18019G30KT 10SM -VCTSRA SCT035 BKN050 OVC100 13/06 A3001 RMK AO2 LTG DSNT SE AND SW
KPOY 230235Z AUTO 26007KT 10SM VCTS SCT100 16/07 A2997 RMK AO2 LTG DSNT ALQS
KPOY 230215Z AUTO 27005KT 10SM SCT120 16/07 A2997 RMK AO2 LTG DSNT SE S AND NW
KPOY 230155Z AUTO 29008KT 10SM VCTS CLR 17/07 A2996 RMK AO2 LTG DSNT SE AND S
KPOY 230135Z AUTO 30007KT 10SM CLR 17/07 A2996 RMK AO2 LTG DSNT SE THRU NW
KPOY 230115Z AUTO 30011KT 10SM SCT055 18/07 A2996 RMK AO2 LTG DSNT SE THRU W
KPOY 230055Z AUTO 31009KT 10SM VCTS SCT055 SCT065 18/07 A2995 RMK AO2 LTG DSNT SE S AND NW
KPOY 230035Z AUTO 31011KT 10SM CLR 19/06 A2995 RMK AO2 LTG DSNT SE AND W
KPOY 230015Z AUTO 32008KT 10SM VCTS CLR 20/06 A2994 RMK AO2 LTG DSNT SE W AND NW
KPOY 222355Z AUTO 32013KT 10SM CLR 20/07 A2993 RMK AO2 LTG DSNT SE THRU W
KPOY 222335Z AUTO 33010G18KT 10SM CLR 21/07 A2994 RMK AO2 LTG DSNT SE THRU W
KPOY 222315Z AUTO 32015G20KT 10SM CLR 21/07 A2994 RMK AO2 LTG DSNT W
KPOY 222255Z AUTO 33015G19KT 10SM CLR 21/07 A2996 RMK AO2 LTG DSNT W AND NW
KPOY 222235Z AUTO 32015G22KT 10SM CLR 21/07 A2997 RMK AO2 LTG DSNT W
KPOY 222215Z AUTO 33018KT 10SM CLR 21/07 A2996 RMK AO2 LTG DSNT E S AND W
KPOY 222155Z AUTO 32017G22KT 10SM SCT045 SCT060 21/07 A2996 RMK AO2
KPOY 222135Z AUTO 33016G19KT 10SM SCT045 SCT050 20/07 A2997 RMK AO2 LTG DSNT S
KPOY 222115Z AUTO 34007KT 10SM SCT050 21/05 A2998 RMK AO2 LTG DSNT W
KPOY 222055Z AUTO 34008KT 10SM SCT050 SCT070 SCT085 21/05 A2998 RMK AO2 LTG DSNT W
KPOY 222035Z AUTO 34007KT 10SM CLR 21/05 A2998 RMK AO2 LTG DSNT SW AND NW
KPOY 222015Z AUTO 35005G14KT 10SM SCT055 21/05 A2998 RMK AO2 LTG DSNT SW AND NW